createdAt,value
2023-11-03T00:00:52.708Z,93305.59
2023-11-03T00:01:54.383Z,93311.19
2023-11-03T00:03:00.166Z,93306.34
2023-11-03T00:04:02.766Z,93300.00
2023-11-03T00:05:12.023Z,93313.41
2023-11-03T00:06:13.943Z,93306.75
2023-11-03T00:07:16.110Z,93300.06
2023-11-03T00:08:18.752Z,93301.75
2023-11-03T00:09:24.595Z,93297.72
2023-11-03T00:10:26.188Z,93298.19
2023-11-03T00:11:28.611Z,93298.81
2023-11-03T00:12:30.050Z,93301.38
2023-11-03T00:13:32.908Z,93300.22
2023-11-03T00:14:34.940Z,93294.06
2023-11-03T00:15:37.405Z,93294.16
2023-11-03T00:16:39.024Z,93296.56
2023-11-03T00:17:40.652Z,93298.97
2023-11-03T00:18:42.375Z,93294.06
2023-11-03T00:19:47.646Z,93296.09
2023-11-03T00:20:49.625Z,93303.81
2023-11-03T00:21:51.105Z,93302.78
2023-11-03T00:22:52.594Z,93296.72
2023-11-03T00:23:54.082Z,93301.31
2023-11-03T00:24:56.504Z,93304.44
2023-11-03T00:25:58.101Z,93304.38
2023-11-03T00:26:59.578Z,93307.81
2023-11-03T00:28:01.469Z,93309.56
2023-11-03T00:29:02.974Z,93309.09
2023-11-03T00:30:08.836Z,93307.94
2023-11-03T00:31:12.798Z,93302.66
2023-11-03T00:32:16.204Z,93306.63
2023-11-03T00:33:18.809Z,93295.97
2023-11-03T00:34:21.025Z,93297.34
2023-11-03T00:35:22.601Z,93293.09
2023-11-03T00:36:24.076Z,93289.44
2023-11-03T00:37:26.402Z,93289.91
2023-11-03T00:38:27.861Z,93284.88
2023-11-03T00:39:29.402Z,93279.94
2023-11-03T00:40:30.875Z,93282.59
2023-11-03T00:41:33.068Z,93285.22
2023-11-03T00:42:34.563Z,93277.09
2023-11-03T00:43:36.088Z,93283.84
2023-11-03T00:44:38.859Z,93286.72
2023-11-03T00:45:40.380Z,93288.34
2023-11-03T00:46:43.310Z,93289.81
2023-11-03T00:47:44.976Z,93288.88
2023-11-03T00:48:46.840Z,93301.50
2023-11-03T00:49:48.319Z,93292.47
2023-11-03T00:50:49.940Z,93293.16
2023-11-03T00:51:51.519Z,93292.47
2023-11-03T00:52:52.994Z,93304.06
2023-11-03T00:53:54.941Z,93292.38
2023-11-03T00:54:56.830Z,93301.28
2023-11-03T00:55:58.541Z,93293.72
2023-11-03T00:57:01.439Z,93287.63
2023-11-03T00:58:05.034Z,93297.59
2023-11-03T00:59:08.846Z,93292.31
2023-11-03T01:00:13.935Z,93298.63
2023-11-03T01:01:15.677Z,93297.28
2023-11-03T01:02:17.647Z,93297.03
2023-11-03T01:03:20.282Z,93308.41
2023-11-03T01:04:22.825Z,93306.78
2023-11-03T01:05:25.127Z,93309.88
2023-11-03T01:06:26.743Z,93304.75
2023-11-03T01:07:28.288Z,93308.03
2023-11-03T01:08:29.960Z,93313.91
2023-11-03T01:09:31.451Z,93311.50
2023-11-03T01:10:33.925Z,93313.69
2023-11-03T01:11:37.727Z,93315.53
2023-11-03T01:12:39.218Z,93316.22
2023-11-03T01:13:43.564Z,93319.56
2023-11-03T01:14:45.912Z,93323.56
2023-11-03T01:15:47.691Z,93329.75
2023-11-03T01:16:50.939Z,93331.00
2023-11-03T01:17:52.572Z,93327.78
2023-11-03T01:18:55.813Z,93334.44
2023-11-03T01:19:57.502Z,93333.66
2023-11-03T01:21:00.141Z,93333.66
2023-11-03T01:22:01.732Z,93338.34
2023-11-03T01:23:03.438Z,93329.84
2023-11-03T01:24:05.457Z,93334.09
2023-11-03T01:25:07.516Z,93331.22
2023-11-03T01:26:10.095Z,93333.06
2023-11-03T01:27:11.537Z,93341.72
2023-11-03T01:28:14.236Z,93338.25
2023-11-03T01:29:15.766Z,93341.84
2023-11-03T01:30:21.782Z,93343.00
2023-11-03T01:31:23.932Z,93346.31
2023-11-03T01:32:25.516Z,93344.25
2023-11-03T01:33:27.263Z,93344.91
2023-11-03T01:34:29.071Z,93348.00
2023-11-03T01:35:31.517Z,93339.28
2023-11-03T01:36:33.415Z,93342.97
2023-11-03T01:37:35.530Z,93345.22
2023-11-03T01:38:40.094Z,93338.56
2023-11-03T01:39:41.776Z,93339.72
2023-11-03T01:40:43.441Z,93336.88
2023-11-03T01:41:45.258Z,93336.56
2023-11-03T01:42:49.357Z,93337.38
2023-11-03T01:44:02.484Z,93337.28
2023-11-03T01:45:05.949Z,93341.41
2023-11-03T01:46:07.869Z,93343.34
2023-11-03T01:47:09.479Z,93344.50
2023-11-03T01:48:11.175Z,93341.88
2023-11-03T01:49:13.738Z,93345.22
2023-11-03T01:50:18.032Z,93339.50
2023-11-03T01:51:19.832Z,93348.78
2023-11-03T01:52:21.819Z,93341.94
2023-11-03T01:53:23.242Z,93334.00
2023-11-03T01:54:25.152Z,93343.78
2023-11-03T01:55:27.095Z,93342.63
2023-11-03T01:56:30.053Z,93334.84
2023-11-03T01:57:32.245Z,93336.41
2023-11-03T01:58:33.825Z,93342.53
2023-11-03T01:59:35.302Z,93335.38
2023-11-03T02:00:37.081Z,93339.44
2023-11-03T02:01:43.093Z,93337.81
2023-11-03T02:02:46.345Z,93333.13
2023-11-03T02:03:49.480Z,93333.34
2023-11-03T02:04:51.114Z,93330.72
2023-11-03T02:05:53.855Z,93329.88
2023-11-03T02:06:55.463Z,93329.31
2023-11-03T02:07:57.019Z,93320.88
2023-11-03T02:08:58.614Z,93321.25
2023-11-03T02:10:00.270Z,93320.38
2023-11-03T02:11:01.807Z,93327.69
2023-11-03T02:12:04.011Z,93323.91
2023-11-03T02:13:05.627Z,93327.59
2023-11-03T02:14:08.560Z,93329.31
2023-11-03T02:15:10.448Z,93327.59
2023-11-03T02:16:11.995Z,93326.34
2023-11-03T02:17:14.912Z,93328.84
2023-11-03T02:18:18.912Z,93333.56
2023-11-03T02:19:21.109Z,93329.97
2023-11-03T02:20:22.858Z,93334.59
2023-11-03T02:21:24.421Z,93332.88
2023-11-03T02:22:25.891Z,93333.22
2023-11-03T02:23:27.599Z,93332.06
2023-11-03T02:24:29.137Z,93337.91
2023-11-03T02:25:31.630Z,93332.16
2023-11-03T02:26:33.210Z,93326.16
2023-11-03T02:27:34.642Z,93327.88
2023-11-03T02:28:36.591Z,93322.38
2023-11-03T02:29:38.483Z,93328.94
2023-11-03T02:30:40.827Z,93329.13
2023-11-03T02:31:42.590Z,93319.50
2023-11-03T02:32:44.047Z,93322.94
2023-11-03T02:33:45.586Z,93318.69
2023-11-03T02:34:47.249Z,93326.63
2023-11-03T02:35:49.544Z,93332.47
2023-11-03T02:36:51.583Z,93321.13
2023-11-03T02:37:53.053Z,93328.16
2023-11-03T02:38:55.446Z,93321.38
2023-11-03T02:39:56.962Z,93324.25
2023-11-03T02:40:58.448Z,93322.41
2023-11-03T02:42:00.350Z,93323.00
2023-11-03T02:43:01.885Z,93316.75
2023-11-03T02:44:03.921Z,93323.09
2023-11-03T02:45:07.046Z,93319.53
2023-11-03T02:46:08.822Z,93318.94
2023-11-03T02:47:10.420Z,93316.97
2023-11-03T02:48:12.123Z,93312.25
2023-11-03T02:49:13.867Z,93315.41
2023-11-03T02:50:15.487Z,93316.66
2023-11-03T02:51:17.642Z,93321.03
2023-11-03T02:52:19.060Z,93319.22
2023-11-03T02:53:20.618Z,93319.88
2023-11-03T02:54:23.865Z,93318.56
2023-11-03T02:55:25.427Z,93326.97
2023-11-03T02:56:28.244Z,93328.66
2023-11-03T02:57:29.714Z,93324.53
2023-11-03T02:58:35.979Z,93324.63
2023-11-03T02:59:37.512Z,93326.72
2023-11-03T03:00:39.185Z,93319.34
2023-11-03T03:01:41.850Z,93326.72
2023-11-03T03:02:43.509Z,93320.84
2023-11-03T03:03:44.959Z,93318.41
2023-11-03T03:04:46.609Z,93327.28
2023-11-03T03:05:48.142Z,93326.63
2023-11-03T03:06:49.662Z,93328.97
2023-11-03T03:07:51.356Z,93336.34
2023-11-03T03:08:52.825Z,93336.91
2023-11-03T03:09:54.354Z,93338.16
2023-11-03T03:10:56.827Z,93337.00
2023-11-03T03:11:58.754Z,93337.13
2023-11-03T03:13:03.371Z,93331.16
2023-11-03T03:14:05.446Z,93337.38
2023-11-03T03:15:07.370Z,93332.31
2023-11-03T03:16:10.379Z,93332.56
2023-11-03T03:17:13.001Z,93330.94
2023-11-03T03:18:14.559Z,93326.94
2023-11-03T03:19:16.259Z,93327.72
2023-11-03T03:20:18.470Z,93331.63
2023-11-03T03:21:20.104Z,93327.03
2023-11-03T03:22:21.722Z,93333.56
2023-11-03T03:23:23.826Z,93328.97
2023-11-03T03:24:26.172Z,93331.22
2023-11-03T03:25:27.611Z,93329.59
2023-11-03T03:26:29.086Z,93323.75
2023-11-03T03:27:30.585Z,93318.13
2023-11-03T03:28:32.021Z,93316.50
2023-11-03T03:29:33.461Z,93322.81
2023-11-03T03:30:34.966Z,93314.31
2023-11-03T03:31:36.510Z,93306.63
2023-11-03T03:32:38.080Z,93312.69
2023-11-03T03:33:40.071Z,93306.84
2023-11-03T03:34:41.910Z,93313.59
2023-11-03T03:35:43.537Z,93314.63
2023-11-03T03:36:45.012Z,93317.84
2023-11-03T03:37:46.521Z,93312.81
2023-11-03T03:38:47.973Z,93315.63
2023-11-03T03:39:49.459Z,93310.81
2023-11-03T03:40:50.908Z,93316.31
2023-11-03T03:41:55.355Z,93310.66
2023-11-03T03:42:57.078Z,93307.47
2023-11-03T03:43:58.537Z,93311.34
2023-11-03T03:45:00.213Z,93310.78
2023-11-03T03:46:01.801Z,93310.78
2023-11-03T03:47:04.165Z,93310.78
2023-11-03T03:48:05.932Z,93320.06
2023-11-03T03:49:07.745Z,93313.75
2023-11-03T03:50:09.544Z,93307.91
2023-11-03T03:51:11.269Z,93317.63
2023-11-03T03:52:12.771Z,93320.06
2023-11-03T03:53:14.543Z,93325.78
2023-11-03T03:54:16.167Z,93321.91
2023-11-03T03:55:17.876Z,93324.91
2023-11-03T03:56:19.384Z,93322.03
2023-11-03T03:57:20.813Z,93328.50
2023-11-03T03:58:22.267Z,93332.75
2023-11-03T03:59:23.940Z,93333.78
2023-11-03T04:00:25.516Z,93339.84
2023-11-03T04:01:27.014Z,93338.44
2023-11-03T04:02:29.226Z,93347.91
2023-11-03T04:03:31.077Z,93356.50
2023-11-03T04:04:32.710Z,93361.97
2023-11-03T04:05:34.213Z,93371.75
2023-11-03T04:06:35.885Z,93376.56
2023-11-03T04:07:37.444Z,93372.69
2023-11-03T04:08:39.200Z,93374.47
2023-11-03T04:09:40.843Z,93371.38
2023-11-03T04:10:42.344Z,93368.50
2023-11-03T04:11:43.780Z,93366.59
2023-11-03T04:12:45.418Z,93360.06
2023-11-03T04:13:46.913Z,93359.38
2023-11-03T04:14:48.354Z,93362.59
2023-11-03T04:15:49.864Z,93357.91
2023-11-03T04:16:53.377Z,93353.59
2023-11-03T04:17:54.903Z,93351.97
2023-11-03T04:18:57.167Z,93348.50
2023-11-03T04:19:59.364Z,93340.94
2023-11-03T04:21:01.062Z,93348.88
2023-11-03T04:22:02.698Z,93344.97
2023-11-03T04:23:04.298Z,93342.56
2023-11-03T04:24:06.047Z,93340.94
2023-11-03T04:25:07.923Z,93334.03
2023-11-03T04:26:09.392Z,93331.16
2023-11-03T04:27:11.216Z,93342.41
2023-11-03T04:28:12.924Z,93342.88
2023-11-03T04:29:15.004Z,93329.06
2023-11-03T04:30:16.645Z,93336.56
2023-11-03T04:31:18.273Z,93339.22
2023-11-03T04:32:19.898Z,93337.44
2023-11-03T04:33:21.321Z,93334.44
2023-11-03T04:34:23.296Z,93341.41
2023-11-03T04:35:25.105Z,93336.81
2023-11-03T04:36:26.584Z,93332.00
2023-11-03T04:37:28.079Z,93335.66
2023-11-03T04:38:29.790Z,93333.81
2023-11-03T04:39:31.289Z,93334.41
2023-11-03T04:40:32.969Z,93333.72
2023-11-03T04:41:34.681Z,93334.44
2023-11-03T04:42:36.209Z,93333.19
2023-11-03T04:43:39.783Z,93331.06
2023-11-03T04:44:41.218Z,93332.66
2023-11-03T04:45:42.767Z,93329.34
2023-11-03T04:46:44.339Z,93327.72
2023-11-03T04:47:45.903Z,93330.00
2023-11-03T04:48:47.607Z,93326.47
2023-11-03T04:49:49.203Z,93338.88
2023-11-03T04:50:50.877Z,93337.38
2023-11-03T04:51:52.382Z,93334.53
2023-11-03T04:52:53.817Z,93332.09
2023-11-03T04:53:56.544Z,93338.66
2023-11-03T04:54:58.068Z,93345.31
2023-11-03T04:55:59.597Z,93344.06
2023-11-03T04:57:01.089Z,93342.66
2023-11-03T04:58:02.853Z,93343.50
2023-11-03T04:59:06.420Z,93335.91
2023-11-03T05:00:11.841Z,93339.94
2023-11-03T05:01:14.541Z,93345.22
2023-11-03T05:02:17.658Z,93343.41
2023-11-03T05:03:20.521Z,93354.31
2023-11-03T05:04:23.520Z,93356.63
2023-11-03T05:05:25.303Z,93358.94
2023-11-03T05:06:26.968Z,93360.31
2023-11-03T05:07:28.616Z,93364.94
2023-11-03T05:08:30.045Z,93372.06
2023-11-03T05:09:31.642Z,93368.38
2023-11-03T05:10:34.055Z,93353.66
2023-11-03T05:11:35.543Z,93356.91
2023-11-03T05:12:37.559Z,93357.69
2023-11-03T05:13:46.177Z,93352.31
2023-11-03T05:14:47.766Z,93354.16
2023-11-03T05:15:49.349Z,93361.03
2023-11-03T05:16:50.838Z,93353.94
2023-11-03T05:17:52.617Z,93358.06
2023-11-03T05:18:54.235Z,93353.00
2023-11-03T05:19:55.656Z,93362.34
2023-11-03T05:20:57.097Z,93364.63
2023-11-03T05:21:58.886Z,93362.78
2023-11-03T05:23:00.722Z,93368.53
2023-11-03T05:24:02.241Z,93360.28
2023-11-03T05:25:04.718Z,93364.41
2023-11-03T05:26:06.440Z,93360.84
2023-11-03T05:27:09.407Z,93366.38
2023-11-03T05:28:11.070Z,93370.50
2023-11-03T05:29:19.097Z,93369.25
2023-11-03T05:30:27.360Z,93367.66
2023-11-03T05:31:28.842Z,93368.22
2023-11-03T05:32:30.364Z,93370.53
2023-11-03T05:33:32.694Z,93368.69
2023-11-03T05:34:37.155Z,93369.56
2023-11-03T05:35:38.842Z,93371.09
2023-11-03T05:36:40.312Z,93364.88
2023-11-03T05:37:41.832Z,93369.59
2023-11-03T05:38:43.333Z,93375.59
2023-11-03T05:39:44.947Z,93378.81
2023-11-03T05:40:46.792Z,93372.25
2023-11-03T05:41:48.791Z,93380.31
2023-11-03T05:42:50.401Z,93378.13
2023-11-03T05:43:52.253Z,93381.69
2023-11-03T05:44:53.717Z,93385.59
2023-11-03T05:45:55.216Z,93380.88
2023-11-03T05:46:56.897Z,93377.53
2023-11-03T05:48:01.283Z,93385.13
2023-11-03T05:49:03.552Z,93376.97
2023-11-03T05:50:06.737Z,93386.75
2023-11-03T05:51:08.285Z,93388.84
2023-11-03T05:52:09.776Z,93387.69
2023-11-03T05:53:11.243Z,93386.84
2023-11-03T05:54:12.771Z,93395.25
2023-11-03T05:55:14.378Z,93389.41
2023-11-03T05:56:16.331Z,93396.06
2023-11-03T05:57:17.815Z,93390.09
2023-11-03T05:58:19.310Z,93393.44
2023-11-03T05:59:20.915Z,93398.63
2023-11-03T06:00:23.037Z,93388.50
2023-11-03T06:01:24.555Z,93395.50
2023-11-03T06:02:25.996Z,93396.63
2023-11-03T06:03:27.554Z,93391.00
2023-11-03T06:04:29.077Z,93395.72
2023-11-03T06:05:30.779Z,93389.03
2023-11-03T06:06:32.458Z,93391.69
2023-11-03T06:07:35.893Z,93398.72
2023-11-03T06:08:37.346Z,93403.78
2023-11-03T06:09:41.695Z,93404.91
2023-11-03T06:10:43.194Z,93395.13
2023-11-03T06:11:44.916Z,93408.56
2023-11-03T06:12:47.673Z,93400.41
2023-11-03T06:13:49.269Z,93403.50
2023-11-03T06:14:50.732Z,93403.50
2023-11-03T06:15:52.348Z,93405.94
2023-11-03T06:16:53.910Z,93411.91
2023-11-03T06:17:56.977Z,93407.78
2023-11-03T06:18:58.790Z,93416.75
2023-11-03T06:20:00.485Z,93409.16
2023-11-03T06:21:02.538Z,93407.69
2023-11-03T06:22:04.309Z,93417.66
2023-11-03T06:23:05.972Z,93418.91
2023-11-03T06:24:08.409Z,93412.84
2023-11-03T06:25:09.980Z,93415.94
2023-11-03T06:26:12.627Z,93415.03
2023-11-03T06:27:14.803Z,93425.69
2023-11-03T06:28:16.978Z,93426.38
2023-11-03T06:29:18.435Z,93414.56
2023-11-03T06:30:20.123Z,93419.75
2023-11-03T06:31:21.594Z,93429.72
2023-11-03T06:32:23.076Z,93418.13
2023-11-03T06:33:24.648Z,93427.31
2023-11-03T06:34:26.416Z,93420.91
2023-11-03T06:35:28.799Z,93417.34
2023-11-03T06:36:40.129Z,93421.56
2023-11-03T06:37:46.456Z,93434.59
2023-11-03T06:38:48.330Z,93436.31
2023-11-03T06:39:52.593Z,93433.09
2023-11-03T06:40:54.450Z,93430.66
2023-11-03T06:41:55.864Z,93441.25
2023-11-03T06:42:57.463Z,93441.69
2023-11-03T06:43:58.921Z,93451.81
2023-11-03T06:45:00.421Z,93439.41
2023-11-03T06:46:02.246Z,93449.41
2023-11-03T06:47:04.335Z,93451.03
2023-11-03T06:48:07.126Z,93446.75
2023-11-03T06:49:08.983Z,93450.22
2023-11-03T06:50:10.588Z,93445.59
2023-11-03T06:51:12.792Z,93450.88
2023-11-03T06:52:15.011Z,93449.06
2023-11-03T06:53:16.838Z,93449.72
2023-11-03T06:54:19.337Z,93453.53
2023-11-03T06:55:20.821Z,93459.06
2023-11-03T06:56:22.249Z,93454.44
2023-11-03T06:57:26.569Z,93464.00
2023-11-03T06:58:28.179Z,93467.06
2023-11-03T06:59:30.053Z,93467.69
2023-11-03T07:00:31.477Z,93474.13
2023-11-03T07:01:33.242Z,93478.16
2023-11-03T07:02:34.971Z,93476.69
2023-11-03T07:03:37.131Z,93478.88
2023-11-03T07:04:39.569Z,93481.75
2023-11-03T07:05:43.540Z,93484.25
2023-11-03T07:06:45.181Z,93480.81
2023-11-03T07:07:46.681Z,93483.69
2023-11-03T07:08:48.523Z,93483.56
2023-11-03T07:09:50.323Z,93490.84
2023-11-03T07:10:52.402Z,93491.06
2023-11-03T07:11:55.983Z,93492.47
2023-11-03T07:12:58.095Z,93495.66
2023-11-03T07:13:59.969Z,93497.84
2023-11-03T07:15:03.065Z,93504.41
2023-11-03T07:16:06.434Z,93501.75
2023-11-03T07:17:09.050Z,93500.59
2023-11-03T07:18:11.173Z,93502.22
2023-11-03T07:19:12.768Z,93503.59
2023-11-03T07:20:16.334Z,93498.09
2023-11-03T07:21:17.982Z,93503.50
2023-11-03T07:22:24.903Z,93502.25
2023-11-03T07:23:26.507Z,93501.66
2023-11-03T07:24:27.977Z,93499.38
2023-11-03T07:25:29.459Z,93501.22
2023-11-03T07:26:31.779Z,93499.00
2023-11-03T07:27:33.818Z,93498.34
2023-11-03T07:28:35.325Z,93502.34
2023-11-03T07:29:36.890Z,93499.59
2023-11-03T07:30:38.414Z,93503.41
2023-11-03T07:31:40.024Z,93511.34
2023-11-03T07:32:45.727Z,93508.38
2023-11-03T07:33:47.974Z,93504.56
2023-11-03T07:34:50.259Z,93508.56
2023-11-03T07:35:52.508Z,93511.34
2023-11-03T07:36:54.143Z,93513.53
2023-11-03T07:37:56.066Z,93513.78
2023-11-03T07:38:59.225Z,93514.47
2023-11-03T07:40:00.951Z,93516.22
2023-11-03T07:41:03.949Z,93508.06
2023-11-03T07:42:05.970Z,93509.66
2023-11-03T07:43:07.536Z,93516.00
2023-11-03T07:44:09.059Z,93513.25
2023-11-03T07:45:12.595Z,93512.41
2023-11-03T07:46:14.451Z,93520.38
2023-11-03T07:47:16.470Z,93513.81
2023-11-03T07:48:18.977Z,93513.81
2023-11-03T07:49:20.608Z,93512.78
2023-11-03T07:50:23.168Z,93515.44
2023-11-03T07:51:26.096Z,93507.81
2023-11-03T07:52:27.646Z,93506.47
2023-11-03T07:53:29.224Z,93512.44
2023-11-03T07:54:30.718Z,93507.72
2023-11-03T07:55:32.237Z,93510.63
2023-11-03T07:56:35.982Z,93503.47
2023-11-03T07:57:39.835Z,93509.91
2023-11-03T07:58:41.400Z,93502.56
2023-11-03T07:59:42.902Z,93500.59
2023-11-03T08:00:44.660Z,93509.47
2023-11-03T08:01:46.183Z,93513.25
2023-11-03T08:02:48.255Z,93517.06
2023-11-03T08:03:50.225Z,93510.72
2023-11-03T08:04:52.502Z,93511.44
2023-11-03T08:05:54.213Z,93510.72
2023-11-03T08:06:56.482Z,93510.63
2023-11-03T08:07:58.016Z,93510.84
2023-11-03T08:08:59.503Z,93514.19
2023-11-03T08:10:02.318Z,93512.56
2023-11-03T08:11:04.269Z,93504.88
2023-11-03T08:12:08.063Z,93508.31
2023-11-03T08:13:09.976Z,93509.94
2023-11-03T08:14:11.546Z,93512.09
2023-11-03T08:15:15.683Z,93519.38
2023-11-03T08:16:18.672Z,93511.75
2023-11-03T08:17:20.619Z,93509.00
2023-11-03T08:18:22.479Z,93511.63
2023-11-03T08:19:24.236Z,93513.38
2023-11-03T08:20:25.678Z,93513.25
2023-11-03T08:21:27.442Z,93507.25
2023-11-03T08:22:30.594Z,93511.75
2023-11-03T08:23:33.622Z,93507.47
2023-11-03T08:24:35.119Z,93507.13
2023-11-03T08:25:36.945Z,93515.66
2023-11-03T08:26:39.971Z,93511.50
2023-11-03T08:27:43.189Z,93511.16
2023-11-03T08:28:47.119Z,93503.19
2023-11-03T08:29:49.115Z,93508.94
2023-11-03T08:30:52.143Z,93519.22
2023-11-03T08:31:54.297Z,93510.69
2023-11-03T08:32:56.495Z,93517.59
2023-11-03T08:33:58.269Z,93518.38
2023-11-03T08:35:00.426Z,93515.25
2023-11-03T08:36:02.266Z,93521.94
2023-11-03T08:37:04.579Z,93523.47
2023-11-03T08:38:06.460Z,93521.50
2023-11-03T08:39:20.442Z,93521.50
2023-11-03T08:40:29.510Z,93526.69
2023-11-03T08:41:31.190Z,93525.66
2023-11-03T08:42:32.791Z,93530.81
2023-11-03T08:43:34.673Z,93530.94
2023-11-03T08:44:37.724Z,93530.63
2023-11-03T08:45:41.855Z,93531.03
2023-11-03T08:46:43.433Z,93541.75
2023-11-03T08:47:45.005Z,93545.44
2023-11-03T08:48:47.105Z,93540.00
2023-11-03T08:49:48.945Z,93539.75
2023-11-03T08:50:51.334Z,93545.63
2023-11-03T08:51:53.465Z,93547.72
2023-11-03T08:52:55.420Z,93552.56
2023-11-03T08:53:56.959Z,93559.25
2023-11-03T08:54:58.468Z,93554.16
2023-11-03T08:56:00.121Z,93552.66
2023-11-03T08:57:01.828Z,93554.22
2023-11-03T08:58:03.313Z,93558.03
2023-11-03T08:59:04.977Z,93564.16
2023-11-03T09:00:13.155Z,93559.91
2023-11-03T09:01:15.007Z,93560.91
2023-11-03T09:02:16.515Z,93562.53
2023-11-03T09:03:20.250Z,93568.28
2023-11-03T09:04:21.777Z,93567.91
2023-11-03T09:05:24.335Z,93572.19
2023-11-03T09:06:26.019Z,93565.59
2023-11-03T09:07:27.929Z,93567.22
2023-11-03T09:08:29.508Z,93571.34
2023-11-03T09:09:31.037Z,93569.22
2023-11-03T09:10:33.291Z,93570.31
2023-11-03T09:11:35.778Z,93573.22
2023-11-03T09:12:38.882Z,93565.66
2023-11-03T09:13:54.148Z,93567.03
2023-11-03T09:14:56.643Z,93574.47
2023-11-03T09:16:01.391Z,93575.59
2023-11-03T09:17:02.896Z,93571.81
2023-11-03T09:18:05.320Z,93568.00
2023-11-03T09:19:08.742Z,93566.72
2023-11-03T09:20:11.348Z,93565.28
2023-11-03T09:21:14.132Z,93565.19
2023-11-03T09:22:23.087Z,93569.34
2023-11-03T09:23:30.099Z,93571.69
2023-11-03T09:24:31.658Z,93563.09
2023-11-03T09:25:33.636Z,93569.94
2023-11-03T09:26:35.775Z,93561.38
2023-11-03T09:27:38.942Z,93565.09
2023-11-03T09:28:40.533Z,93562.75
2023-11-03T09:29:42.595Z,93564.28
2023-11-03T09:30:44.680Z,93568.50
2023-11-03T09:31:47.106Z,93559.91
2023-11-03T09:32:49.582Z,93562.72
2023-11-03T09:33:51.089Z,93567.00
2023-11-03T09:34:52.580Z,93554.84
2023-11-03T09:35:54.023Z,93562.13
2023-11-03T09:36:57.194Z,93563.78
2023-11-03T09:37:58.586Z,93561.25
2023-11-03T09:39:00.508Z,93566.31
2023-11-03T09:40:03.272Z,93563.66
2023-11-03T09:41:09.260Z,93566.75
2023-11-03T09:42:19.350Z,93563.22
2023-11-03T09:43:21.876Z,93568.13
2023-11-03T09:44:23.808Z,93570.41
2023-11-03T09:45:28.391Z,93570.31
2023-11-03T09:46:32.181Z,93573.13
2023-11-03T09:47:33.818Z,93561.63
2023-11-03T09:48:35.612Z,93562.03
2023-11-03T09:49:37.426Z,93561.41
2023-11-03T09:50:39.564Z,93555.84
2023-11-03T09:51:42.787Z,93561.47
2023-11-03T09:52:50.896Z,93555.34
2023-11-03T09:53:54.249Z,93555.91
2023-11-03T09:54:56.553Z,93557.19
2023-11-03T09:56:00.547Z,93558.16
2023-11-03T09:57:03.876Z,93557.66
2023-11-03T09:58:07.209Z,93557.41
2023-11-03T09:59:08.749Z,93559.19
2023-11-03T10:00:17.619Z,93557.22
2023-11-03T10:01:20.430Z,93561.84
2023-11-03T10:02:22.142Z,93559.28
2023-11-03T10:03:23.709Z,93557.59
2023-11-03T10:04:25.888Z,93554.13
2023-11-03T10:05:31.670Z,93557.44
2023-11-03T10:06:33.928Z,93552.19
2023-11-03T10:07:35.778Z,93555.59
2023-11-03T10:08:41.211Z,93548.91
2023-11-03T10:09:44.328Z,93552.44
2023-11-03T10:10:48.066Z,93556.63
2023-11-03T10:11:49.579Z,93545.78
2023-11-03T10:12:51.085Z,93555.16
2023-11-03T10:13:52.645Z,93550.34
2023-11-03T10:14:54.836Z,93557.22
2023-11-03T10:15:58.757Z,93551.19
2023-11-03T10:17:01.698Z,93550.13
2023-11-03T10:18:03.509Z,93546.59
2023-11-03T10:19:05.217Z,93539.19
2023-11-03T10:20:09.181Z,93541.44
2023-11-03T10:21:10.777Z,93540.94
2023-11-03T10:22:12.387Z,93535.72
2023-11-03T10:23:14.809Z,93535.06
2023-11-03T10:24:16.427Z,93528.88
2023-11-03T10:25:22.683Z,93537.22
2023-11-03T10:26:24.294Z,93546.59
2023-11-03T10:27:27.783Z,93537.44
2023-11-03T10:28:33.094Z,93531.31
2023-11-03T10:29:34.651Z,93534.16
2023-11-03T10:30:38.193Z,93537.50
2023-11-03T10:31:40.289Z,93536.00
2023-11-03T10:32:41.834Z,93536.03
2023-11-03T10:33:44.737Z,93531.03
2023-11-03T10:34:49.812Z,93530.16
2023-11-03T10:35:53.075Z,93534.41
2023-11-03T10:36:57.107Z,93534.06
2023-11-03T10:37:59.497Z,93531.75
2023-11-03T10:39:02.148Z,93538.44
2023-11-03T10:40:14.393Z,93528.72
2023-11-03T10:41:17.553Z,93533.81
2023-11-03T10:42:21.791Z,93522.25
2023-11-03T10:43:26.889Z,93516.88
2023-11-03T10:44:31.626Z,93522.13
2023-11-03T10:45:39.442Z,93523.00
2023-11-03T10:46:50.542Z,93525.31
2023-11-03T10:48:04.193Z,93528.56
2023-11-03T10:49:26.500Z,93522.00
2023-11-03T10:50:46.549Z,93527.25
2023-11-03T10:52:14.413Z,93535.78
2023-11-03T10:53:32.607Z,93526.53
2023-11-03T10:54:46.397Z,93531.38
2023-11-03T10:55:55.570Z,93532.69
2023-11-03T10:57:30.596Z,93525.59
2023-11-03T10:58:19.925Z,93529.88
2023-11-03T10:59:30.241Z,93530.03
2023-11-03T11:00:43.636Z,93533.22
2023-11-03T11:01:55.985Z,93525.97
2023-11-03T11:03:20.433Z,93534.59
2023-11-03T11:04:29.304Z,93535.81
2023-11-03T11:05:40.541Z,93530.81
2023-11-03T11:06:48.931Z,93536.63
2023-11-03T11:07:56.048Z,93536.81
2023-11-03T11:09:06.726Z,93532.72
2023-11-03T11:10:09.732Z,93540.09
2023-11-03T11:11:11.416Z,93540.69
2023-11-03T11:12:16.898Z,93534.66
2023-11-03T11:13:19.165Z,93534.84
2023-11-03T11:14:25.378Z,93533.97
2023-11-03T11:15:26.906Z,93534.16
2023-11-03T11:16:28.460Z,93534.16
2023-11-03T11:17:30.996Z,93543.69
2023-11-03T11:18:45.380Z,93533.31
2023-11-03T11:19:53.307Z,93532.97
2023-11-03T11:20:56.652Z,93537.97
2023-11-03T11:22:00.734Z,93537.59
2023-11-03T11:23:06.538Z,93536.56
2023-11-03T11:24:08.321Z,93533.03
2023-11-03T11:25:11.654Z,93539.75
2023-11-03T11:26:34.018Z,93534.19
2023-11-03T11:27:39.467Z,93540.44
2023-11-03T11:28:41.167Z,93534.69
2023-11-03T11:29:43.433Z,93536.78
2023-11-03T11:30:44.874Z,93536.94
2023-11-03T11:31:47.733Z,93538.69
2023-11-03T11:32:53.255Z,93543.09
2023-11-03T11:34:06.606Z,93537.22
2023-11-03T11:35:09.790Z,93537.72
2023-11-03T11:36:21.061Z,93523.69
2023-11-03T11:37:31.889Z,93530.91
2023-11-03T11:38:33.503Z,93532.84
2023-11-03T11:39:35.194Z,93541.75
2023-11-03T11:40:37.399Z,93540.44
2023-11-03T11:41:45.312Z,93539.94
2023-11-03T11:42:50.566Z,93529.81
2023-11-03T11:43:53.245Z,93537.66
2023-11-03T11:44:55.468Z,93534.75
2023-11-03T11:45:56.918Z,93545.28
2023-11-03T11:47:01.021Z,93539.66
2023-11-03T11:48:08.109Z,93544.47
2023-11-03T11:49:11.914Z,93541.44
2023-11-03T11:50:18.381Z,93536.31
2023-11-03T11:51:20.623Z,93548.00
2023-11-03T11:52:27.254Z,93547.88
2023-11-03T11:53:28.929Z,93544.81
2023-11-03T11:54:30.919Z,93542.47
2023-11-03T11:55:35.667Z,93541.84
2023-11-03T11:56:37.580Z,93544.72
2023-11-03T11:57:41.644Z,93542.06
2023-11-03T11:58:46.060Z,93539.88
2023-11-03T11:59:51.744Z,93539.88
2023-11-03T12:00:53.327Z,93541.19
2023-11-03T12:01:55.080Z,93540.44
2023-11-03T12:02:56.705Z,93541.44
2023-11-03T12:04:03.124Z,93537.16
2023-11-03T12:05:05.225Z,93536.63
2023-11-03T12:06:07.170Z,93540.75
2023-11-03T12:07:09.033Z,93536.41
2023-11-03T12:08:11.132Z,93531.09
2023-11-03T12:09:14.812Z,93546.28
2023-11-03T12:10:18.377Z,93549.25
2023-11-03T12:11:21.476Z,93537.09
2023-11-03T12:12:27.329Z,93539.22
2023-11-03T12:13:28.992Z,93533.41
2023-11-03T12:14:30.506Z,93548.13
2023-11-03T12:15:32.043Z,93540.09
2023-11-03T12:16:37.025Z,93541.50
2023-11-03T12:17:40.194Z,93537.34
2023-11-03T12:18:43.366Z,93541.63